createdAt,value
2024-01-16T00:01:57.398Z,48844.00
2024-01-16T00:04:23.960Z,48832.22
2024-01-16T00:06:51.052Z,48845.94
2024-01-16T00:09:17.898Z,48859.66
2024-01-16T00:11:45.240Z,48832.22
2024-01-16T00:14:11.790Z,48796.97
2024-01-16T00:16:45.811Z,48836.16
2024-01-16T00:19:14.216Z,48793.06
2024-01-16T00:21:41.884Z,48828.31
2024-01-16T00:24:09.164Z,48796.97
2024-01-16T00:26:36.586Z,48836.16
2024-01-16T00:29:03.512Z,48810.69
2024-01-16T00:31:29.946Z,48806.75
2024-01-16T00:33:56.485Z,48822.44
2024-01-16T00:36:23.254Z,48804.81
2024-01-16T00:38:51.476Z,48769.53
2024-01-16T00:41:18.330Z,48781.31
2024-01-16T00:43:45.400Z,48781.31
2024-01-16T00:46:12.164Z,48777.38
2024-01-16T00:48:42.311Z,48789.13
2024-01-16T00:51:09.579Z,48777.38
2024-01-16T00:53:44.626Z,48777.38
2024-01-16T00:56:12.341Z,48765.63
2024-01-16T00:58:39.161Z,48789.13
2024-01-16T01:01:05.943Z,48777.38
2024-01-16T01:03:32.684Z,48777.38
2024-01-16T01:06:01.722Z,48765.63
2024-01-16T01:08:28.361Z,48773.47
2024-01-16T01:10:55.175Z,48765.63
2024-01-16T01:13:21.679Z,48777.38
2024-01-16T01:15:50.186Z,48763.66
2024-01-16T01:18:16.922Z,48761.72
2024-01-16T01:20:43.694Z,48765.63
2024-01-16T01:23:11.090Z,48749.94
2024-01-16T01:25:38.116Z,48769.53
2024-01-16T01:28:04.849Z,48753.88
2024-01-16T01:30:31.375Z,48753.88
2024-01-16T01:32:58.239Z,48769.53
2024-01-16T01:35:24.935Z,48785.22
2024-01-16T01:37:52.206Z,48785.22
2024-01-16T01:40:19.617Z,48777.38
2024-01-16T01:42:46.392Z,48757.78
2024-01-16T01:45:13.699Z,48781.31
2024-01-16T01:47:43.962Z,48773.47
2024-01-16T01:50:11.442Z,48767.59
2024-01-16T01:52:41.005Z,48734.28
2024-01-16T01:55:14.543Z,48749.94
2024-01-16T01:57:44.707Z,48746.03
2024-01-16T02:00:14.456Z,48746.03
2024-01-16T02:02:42.697Z,48757.78
2024-01-16T02:05:09.848Z,48765.63
2024-01-16T02:07:37.716Z,48761.72
2024-01-16T02:10:05.051Z,48757.78
2024-01-16T02:12:31.497Z,48769.53
2024-01-16T02:14:58.004Z,48787.19
2024-01-16T02:17:25.610Z,48761.72
2024-01-16T02:19:55.209Z,48781.31
2024-01-16T02:22:28.213Z,48753.88
2024-01-16T02:24:54.820Z,48765.63
2024-01-16T02:27:21.804Z,48757.78
2024-01-16T02:29:50.278Z,48765.63
2024-01-16T02:32:17.624Z,48757.78
2024-01-16T02:34:44.793Z,48746.03
2024-01-16T02:37:12.305Z,48751.91
2024-01-16T02:39:38.778Z,48751.91
2024-01-16T02:42:05.519Z,48753.88
2024-01-16T02:44:32.089Z,48753.88
2024-01-16T02:46:58.885Z,48777.38
2024-01-16T02:49:27.232Z,48749.94
2024-01-16T02:51:54.015Z,48765.63
2024-01-16T02:54:21.610Z,48773.47
2024-01-16T02:56:48.200Z,48730.38
2024-01-16T02:59:15.212Z,48777.38
2024-01-16T03:01:41.948Z,48761.72
2024-01-16T03:04:08.447Z,48761.72
2024-01-16T03:06:35.895Z,48751.91
2024-01-16T03:09:02.504Z,48793.06
2024-01-16T03:11:32.627Z,48769.53
2024-01-16T03:14:00.622Z,48749.94
2024-01-16T03:16:27.049Z,48777.38
2024-01-16T03:18:53.535Z,48742.13
2024-01-16T03:21:20.273Z,48753.88
2024-01-16T03:23:46.753Z,48744.06
2024-01-16T03:26:16.488Z,48765.63
2024-01-16T03:28:45.176Z,48781.31
2024-01-16T03:31:14.792Z,48742.13
2024-01-16T03:33:44.017Z,48753.88
2024-01-16T03:36:11.686Z,48789.13
2024-01-16T03:38:41.038Z,48738.19
2024-01-16T03:41:08.605Z,48742.13
2024-01-16T03:43:35.973Z,48777.38
2024-01-16T03:46:06.059Z,48769.53
2024-01-16T03:48:32.827Z,48765.63
2024-01-16T03:51:00.587Z,48753.88
2024-01-16T03:53:27.043Z,48765.63
2024-01-16T03:55:53.541Z,48769.53
2024-01-16T03:58:20.028Z,48749.94
2024-01-16T04:00:47.427Z,48793.06
2024-01-16T04:03:14.799Z,48734.28
2024-01-16T04:05:41.833Z,48769.53
2024-01-16T04:08:09.765Z,48769.53
2024-01-16T04:10:37.028Z,48757.78
2024-01-16T04:13:04.778Z,48742.13
2024-01-16T04:15:33.357Z,48746.03
2024-01-16T04:18:01.000Z,48738.19
2024-01-16T04:20:27.577Z,48740.16
2024-01-16T04:22:54.060Z,48734.28
2024-01-16T04:25:20.697Z,48753.88
2024-01-16T04:27:47.307Z,48724.50
2024-01-16T04:30:14.380Z,48757.78
2024-01-16T04:32:41.355Z,48746.03
2024-01-16T04:35:09.271Z,48753.88
2024-01-16T04:37:36.177Z,48746.03
2024-01-16T04:40:03.033Z,48753.88
2024-01-16T04:42:31.232Z,48769.53
2024-01-16T04:44:57.801Z,48730.38
2024-01-16T04:47:24.349Z,48722.53
2024-01-16T04:49:50.859Z,48765.63
2024-01-16T04:52:17.324Z,48746.03
2024-01-16T04:54:49.188Z,48761.72
2024-01-16T04:57:16.313Z,48734.28
2024-01-16T04:59:43.109Z,48736.25
2024-01-16T05:02:09.689Z,48738.19
2024-01-16T05:04:39.564Z,48765.63
2024-01-16T05:07:06.094Z,48738.19
2024-01-16T05:09:32.523Z,48730.38
2024-01-16T05:11:58.976Z,48753.88
2024-01-16T05:14:26.576Z,48734.28
2024-01-16T05:16:54.035Z,48746.03
2024-01-16T05:19:21.120Z,48738.19
2024-01-16T05:21:47.946Z,48722.53
2024-01-16T05:24:14.415Z,48755.84
2024-01-16T05:26:41.168Z,48726.44
2024-01-16T05:29:10.030Z,48746.03
2024-01-16T05:31:42.512Z,48710.78
2024-01-16T05:34:10.566Z,48746.03
2024-01-16T05:36:37.363Z,48736.25
2024-01-16T05:39:04.898Z,48728.41
2024-01-16T05:41:36.388Z,48726.44
2024-01-16T05:44:06.407Z,48732.31
2024-01-16T05:46:35.149Z,48704.91
2024-01-16T05:49:01.822Z,48720.56
2024-01-16T05:51:29.235Z,48742.13
2024-01-16T05:53:56.148Z,48718.59
2024-01-16T05:56:22.884Z,48728.41
2024-01-16T05:58:49.356Z,48706.84
2024-01-16T06:01:18.959Z,48714.69
2024-01-16T06:03:48.062Z,48742.13
2024-01-16T06:06:14.681Z,48714.69
2024-01-16T06:08:41.342Z,48695.09
2024-01-16T06:11:07.890Z,48710.78
2024-01-16T06:13:34.398Z,48722.53
2024-01-16T06:16:01.202Z,48718.59
2024-01-16T06:18:29.447Z,48716.66
2024-01-16T06:20:56.015Z,48718.59
2024-01-16T06:23:22.692Z,48722.53
2024-01-16T06:25:49.667Z,48718.59
2024-01-16T06:28:16.149Z,48718.59
2024-01-16T06:30:42.751Z,48685.31
2024-01-16T06:33:09.579Z,48695.09
2024-01-16T06:35:39.134Z,48710.78
2024-01-16T06:38:07.518Z,48700.97
2024-01-16T06:40:35.466Z,48710.78
2024-01-16T06:43:03.828Z,48681.41
2024-01-16T06:45:32.127Z,48730.38
2024-01-16T06:48:01.879Z,48714.69
2024-01-16T06:50:28.429Z,48702.94
2024-01-16T06:52:55.051Z,48702.94
2024-01-16T06:55:21.492Z,48710.78
2024-01-16T06:57:48.764Z,48710.78
2024-01-16T07:00:16.821Z,48689.22
2024-01-16T07:02:46.304Z,48722.53
2024-01-16T07:05:13.518Z,48714.69
2024-01-16T07:07:41.303Z,48699.03
2024-01-16T07:10:19.069Z,48699.03
2024-01-16T07:12:46.345Z,48679.44
2024-01-16T07:15:13.388Z,48702.94
2024-01-16T07:17:41.481Z,48702.94
2024-01-16T07:20:08.675Z,48683.34
2024-01-16T07:22:38.354Z,48687.28
2024-01-16T07:25:05.071Z,48702.94
2024-01-16T07:27:33.029Z,48697.06
2024-01-16T07:29:59.533Z,48702.94
2024-01-16T07:32:27.170Z,48681.41
2024-01-16T07:34:54.358Z,48691.19
2024-01-16T07:37:21.361Z,48702.94
2024-01-16T07:39:48.003Z,48691.19
2024-01-16T07:42:18.568Z,48693.16
2024-01-16T07:44:47.464Z,48699.03
2024-01-16T07:47:14.320Z,48689.22
2024-01-16T07:49:43.474Z,48675.50
2024-01-16T07:52:13.682Z,48691.19
2024-01-16T07:54:42.312Z,48691.19
2024-01-16T07:57:08.718Z,48681.41
2024-01-16T07:59:35.263Z,48706.84
2024-01-16T08:02:01.735Z,48691.19
2024-01-16T08:04:28.192Z,48708.81
2024-01-16T08:06:57.202Z,48726.44
2024-01-16T08:09:24.259Z,48714.69
2024-01-16T08:11:51.003Z,48679.44
2024-01-16T08:14:17.533Z,48687.28
2024-01-16T08:16:44.274Z,48695.09
2024-01-16T08:19:12.117Z,48699.03
2024-01-16T08:21:38.900Z,48671.59
2024-01-16T08:24:06.442Z,48677.47
2024-01-16T08:26:33.019Z,48671.59
2024-01-16T08:28:59.809Z,48699.03
2024-01-16T08:31:26.606Z,48679.44
2024-01-16T08:33:54.529Z,48683.34
2024-01-16T08:36:21.333Z,48700.97
2024-01-16T08:38:49.688Z,48695.09
2024-01-16T08:41:16.532Z,48685.31
2024-01-16T08:43:44.021Z,48679.44
2024-01-16T08:46:12.064Z,48677.47
2024-01-16T08:48:40.434Z,48683.34
2024-01-16T08:51:13.542Z,48706.84
2024-01-16T08:53:40.565Z,48702.94
2024-01-16T08:56:10.510Z,48702.94
2024-01-16T08:58:39.202Z,48706.84
2024-01-16T09:01:06.424Z,48681.41
2024-01-16T09:03:33.646Z,48704.91
2024-01-16T09:06:00.661Z,48714.69
2024-01-16T09:08:28.007Z,48699.03
2024-01-16T09:10:55.148Z,48683.34
2024-01-16T09:13:22.233Z,48702.94
2024-01-16T09:15:51.476Z,48683.34
2024-01-16T09:18:18.278Z,48699.03
2024-01-16T09:20:44.964Z,48722.53
2024-01-16T09:23:12.537Z,48702.94
2024-01-16T09:25:39.131Z,48683.34
2024-01-16T09:28:05.670Z,48689.22
2024-01-16T09:30:32.107Z,48724.50
2024-01-16T09:32:58.683Z,48683.34
2024-01-16T09:35:26.545Z,48679.44
2024-01-16T09:37:53.069Z,48726.44
2024-01-16T09:40:19.673Z,48695.09
2024-01-16T09:42:47.109Z,48671.59
2024-01-16T09:45:22.926Z,48683.34
2024-01-16T09:47:52.379Z,48693.16
2024-01-16T09:50:20.747Z,48702.94
2024-01-16T09:52:50.824Z,48691.19
2024-01-16T09:55:17.451Z,48671.59
2024-01-16T09:57:47.809Z,48702.94
2024-01-16T10:00:15.100Z,48673.56
2024-01-16T10:02:43.515Z,48710.78
2024-01-16T10:05:12.245Z,48679.44
2024-01-16T10:07:40.724Z,48699.03
2024-01-16T10:10:08.269Z,48700.97
2024-01-16T10:12:35.133Z,48691.19
2024-01-16T10:15:01.866Z,48716.66
2024-01-16T10:17:38.984Z,48667.69
2024-01-16T10:20:06.715Z,48710.78
2024-01-16T10:22:33.727Z,48697.06
2024-01-16T10:25:13.843Z,48687.28
2024-01-16T10:27:41.538Z,48677.47
2024-01-16T10:30:08.774Z,48706.84
2024-01-16T10:32:37.717Z,48714.69
2024-01-16T10:35:14.868Z,48706.84
2024-01-16T10:37:49.030Z,48683.34
2024-01-16T10:40:22.634Z,48699.03
2024-01-16T10:43:02.276Z,48691.19
2024-01-16T10:45:29.459Z,48683.34
2024-01-16T10:48:08.595Z,48706.84
2024-01-16T10:50:38.705Z,48695.09
2024-01-16T10:53:07.133Z,48683.34
2024-01-16T10:55:44.367Z,48695.09
2024-01-16T10:58:14.341Z,48671.59
2024-01-16T11:00:43.805Z,48675.50
2024-01-16T11:03:20.895Z,48671.59
2024-01-16T11:05:49.155Z,48659.84
2024-01-16T11:08:18.534Z,48673.56
2024-01-16T11:10:45.882Z,48679.44
2024-01-16T11:13:13.906Z,48667.69
2024-01-16T11:15:46.325Z,48702.94
2024-01-16T11:18:15.617Z,48683.34
2024-01-16T11:21:01.795Z,48675.50
2024-01-16T11:23:31.123Z,48685.31
2024-01-16T11:25:57.729Z,48669.63
2024-01-16T11:28:33.589Z,48679.44
2024-01-16T11:31:29.706Z,48675.50
2024-01-16T11:33:56.626Z,48693.16
2024-01-16T11:36:47.790Z,48671.59
2024-01-16T11:39:22.863Z,48683.34
2024-01-16T11:41:54.056Z,48702.94
2024-01-16T11:44:48.945Z,48671.59
2024-01-16T11:47:20.516Z,48675.50
2024-01-16T11:50:11.422Z,48679.44
2024-01-16T11:52:41.750Z,48706.84
2024-01-16T11:55:27.984Z,48695.09
2024-01-16T11:58:08.035Z,48691.19
2024-01-16T12:00:36.883Z,48702.94
2024-01-16T12:03:09.192Z,48687.28
2024-01-16T12:05:36.621Z,48681.41
2024-01-16T12:08:04.771Z,48671.59
2024-01-16T12:10:33.031Z,48695.09
2024-01-16T12:13:04.068Z,48706.84
2024-01-16T12:15:32.836Z,48693.16
2024-01-16T12:18:02.012Z,48687.28
2024-01-16T12:20:32.506Z,48691.19
2024-01-16T12:23:04.650Z,48695.09
2024-01-16T12:26:00.366Z,48683.34
2024-01-16T12:30:52.848Z,48679.44
2024-01-16T12:33:28.263Z,48689.22
2024-01-16T12:36:03.907Z,48710.78
2024-01-16T12:38:31.875Z,48695.09
2024-01-16T12:41:02.140Z,48699.03
2024-01-16T12:43:28.772Z,48675.50
2024-01-16T12:45:58.523Z,48687.28
2024-01-16T12:48:26.978Z,48702.94
2024-01-16T12:51:03.546Z,48683.34
2024-01-16T12:53:31.449Z,48663.75
2024-01-16T12:56:04.464Z,48663.75
2024-01-16T12:58:36.641Z,48685.31
2024-01-16T13:01:38.537Z,48693.16
2024-01-16T13:04:07.581Z,48695.09
2024-01-16T13:06:35.832Z,48683.34
2024-01-16T13:09:12.669Z,48677.47
2024-01-16T13:11:59.929Z,48675.50
2024-01-16T13:14:27.391Z,48683.34
2024-01-16T13:17:00.160Z,48675.50
2024-01-16T13:19:27.463Z,48699.03
2024-01-16T13:21:55.492Z,48675.50
2024-01-16T13:24:24.647Z,48691.19
2024-01-16T13:26:52.029Z,48679.44
2024-01-16T13:29:19.089Z,48706.84
2024-01-16T13:31:46.168Z,48681.41
2024-01-16T13:34:13.448Z,48683.34
2024-01-16T13:36:54.308Z,48695.09
2024-01-16T13:39:27.964Z,48700.97
2024-01-16T13:41:55.416Z,48691.19
2024-01-16T13:44:22.242Z,48689.22
2024-01-16T13:46:57.485Z,48683.34
2024-01-16T13:49:32.540Z,48687.28
2024-01-16T13:51:59.064Z,48675.50
2024-01-16T13:54:27.481Z,48677.47
2024-01-16T13:57:03.302Z,48712.72
2024-01-16T13:59:34.270Z,48699.03
2024-01-16T14:02:01.204Z,48671.59
2024-01-16T14:04:30.333Z,48683.34
2024-01-16T14:07:10.453Z,48683.34
2024-01-16T14:09:46.112Z,48689.22
2024-01-16T14:12:14.328Z,48675.50
2024-01-16T14:14:45.642Z,48702.94
2024-01-16T14:17:12.411Z,48697.06
2024-01-16T14:19:40.320Z,48687.28
2024-01-16T14:22:08.669Z,48691.19
2024-01-16T14:24:35.654Z,48679.44
2024-01-16T14:27:02.413Z,48685.31
2024-01-16T14:29:30.487Z,48693.16
2024-01-16T14:31:58.081Z,48671.59
2024-01-16T14:34:25.515Z,48710.78
2024-01-16T14:36:55.070Z,48667.69
2024-01-16T14:39:26.503Z,48704.91
2024-01-16T14:41:54.033Z,48691.19
2024-01-16T14:44:20.646Z,48675.50
2024-01-16T14:46:48.912Z,48693.16
2024-01-16T14:49:17.688Z,48683.34
2024-01-16T14:51:44.414Z,48704.91
2024-01-16T14:54:14.058Z,48683.34
2024-01-16T14:56:40.898Z,48687.28
2024-01-16T14:59:07.367Z,48683.34
2024-01-16T15:01:33.877Z,48687.28
2024-01-16T15:04:01.064Z,48697.06
2024-01-16T15:06:31.144Z,48702.94
2024-01-16T15:08:58.064Z,48679.44
2024-01-16T15:11:28.735Z,48679.44
2024-01-16T15:13:58.594Z,48675.50
2024-01-16T15:16:25.454Z,48675.50
2024-01-16T15:18:52.135Z,48683.34
2024-01-16T15:21:20.774Z,48679.44
2024-01-16T15:23:47.396Z,48683.34
2024-01-16T15:26:20.588Z,48671.59
2024-01-16T15:28:50.009Z,48687.28
2024-01-16T15:31:17.066Z,48671.59
2024-01-16T15:33:43.613Z,48699.03
2024-01-16T15:36:10.181Z,48697.06
2024-01-16T15:38:38.620Z,48679.44
2024-01-16T15:41:05.147Z,48671.59
2024-01-16T15:43:35.259Z,48691.19
2024-01-16T15:46:01.760Z,48671.59
2024-01-16T15:48:35.213Z,48699.03
2024-01-16T15:51:02.658Z,48663.75
2024-01-16T15:53:30.410Z,48695.09
2024-01-16T15:55:56.951Z,48679.44
2024-01-16T15:58:23.529Z,48687.28
2024-01-16T16:00:50.032Z,48679.44
2024-01-16T16:03:18.374Z,48679.44
2024-01-16T16:05:44.943Z,48706.84
2024-01-16T16:08:11.588Z,48695.09
2024-01-16T16:10:38.208Z,48671.59
2024-01-16T16:13:05.780Z,48675.50
2024-01-16T16:15:33.110Z,48679.44
2024-01-16T16:17:59.974Z,48691.19
2024-01-16T16:20:27.002Z,48691.19
2024-01-16T16:22:56.687Z,48681.41
2024-01-16T16:25:23.473Z,48683.34
2024-01-16T16:27:49.869Z,48697.06
2024-01-16T16:30:16.753Z,48677.47
2024-01-16T16:32:45.318Z,48685.31
2024-01-16T16:35:11.959Z,48679.44
2024-01-16T16:37:38.757Z,48695.09
2024-01-16T16:40:11.291Z,48685.31
2024-01-16T16:42:37.886Z,48683.34
2024-01-16T16:45:05.232Z,48667.69
2024-01-16T16:47:32.108Z,48659.84
2024-01-16T16:50:00.122Z,48683.34
2024-01-16T16:52:26.665Z,48710.78
2024-01-16T16:54:55.036Z,48667.69
2024-01-16T16:57:21.568Z,48681.41
2024-01-16T16:59:48.029Z,48683.34
2024-01-16T17:02:15.572Z,48691.19
2024-01-16T17:04:42.559Z,48675.50
2024-01-16T17:07:11.719Z,48699.03
2024-01-16T17:09:41.646Z,48697.06
2024-01-16T17:12:08.632Z,48691.19
2024-01-16T17:14:36.767Z,48699.03
2024-01-16T17:17:04.578Z,48687.28
2024-01-16T17:19:31.165Z,48702.94
2024-01-16T17:21:57.979Z,48681.41
2024-01-16T17:24:24.480Z,48695.09
2024-01-16T17:26:51.876Z,48699.03
2024-01-16T17:29:19.364Z,48687.28
2024-01-16T17:31:45.801Z,48695.09
2024-01-16T17:34:13.593Z,48673.56
2024-01-16T17:36:41.324Z,48699.03
2024-01-16T17:39:10.888Z,48679.44
2024-01-16T17:41:38.215Z,48675.50
2024-01-16T17:44:05.499Z,48697.06
2024-01-16T17:46:31.952Z,48706.84
2024-01-16T17:48:59.672Z,48695.09
2024-01-16T17:51:26.583Z,48687.28
2024-01-16T17:53:55.750Z,48687.28
2024-01-16T17:56:25.794Z,48710.78
2024-01-16T17:58:52.935Z,48702.94
2024-01-16T18:01:21.856Z,48695.09
2024-01-16T18:03:49.377Z,48691.19
2024-01-16T18:06:18.333Z,48691.19
2024-01-16T18:08:45.511Z,48683.34
2024-01-16T18:11:15.545Z,48687.28
2024-01-16T18:13:44.859Z,48695.09
2024-01-16T18:16:12.895Z,48687.28
2024-01-16T18:18:41.329Z,48677.47
2024-01-16T18:21:08.206Z,48687.28
2024-01-16T18:23:36.308Z,48697.06
2024-01-16T18:26:05.585Z,48679.44
2024-01-16T18:28:33.400Z,48687.28
2024-01-16T18:31:00.906Z,48714.69
2024-01-16T18:33:27.782Z,48671.59
2024-01-16T18:36:00.932Z,48683.34
2024-01-16T18:38:28.827Z,48687.28
2024-01-16T18:40:57.637Z,48683.34
2024-01-16T18:43:24.416Z,48683.34
2024-01-16T18:45:52.592Z,48691.19
2024-01-16T18:48:19.425Z,48689.22
2024-01-16T18:50:46.520Z,48695.09
2024-01-16T18:53:14.184Z,48710.78
2024-01-16T18:55:40.903Z,48710.78
2024-01-16T18:58:09.562Z,48706.84
2024-01-16T19:00:38.401Z,48663.75
2024-01-16T19:03:06.335Z,48710.78
2024-01-16T19:05:36.047Z,48691.19
2024-01-16T19:08:02.689Z,48683.34
2024-01-16T19:10:30.452Z,48691.19
2024-01-16T19:12:56.910Z,48683.34
2024-01-16T19:15:23.309Z,48683.34
2024-01-16T19:17:52.126Z,48685.31
2024-01-16T19:20:23.016Z,48706.84
2024-01-16T19:22:56.733Z,48691.19
2024-01-16T19:25:26.966Z,48704.91
2024-01-16T19:27:56.504Z,48687.28
2024-01-16T19:30:24.288Z,48695.09
2024-01-16T19:32:51.540Z,48681.41
2024-01-16T19:35:19.108Z,48671.59
2024-01-16T19:37:47.408Z,48691.19
2024-01-16T19:40:17.302Z,48710.78
2024-01-16T19:42:44.928Z,48675.50
2024-01-16T19:45:12.891Z,48710.78
2024-01-16T19:47:44.116Z,48702.94
2024-01-16T19:50:22.189Z,48700.97
2024-01-16T19:52:51.986Z,48718.59
2024-01-16T19:55:28.559Z,48714.69
2024-01-16T19:57:55.618Z,48706.84
2024-01-16T20:00:22.634Z,48691.19
2024-01-16T20:02:50.236Z,48691.19
2024-01-16T20:05:19.105Z,48706.84
2024-01-16T20:07:47.323Z,48667.69
2024-01-16T20:10:15.288Z,48726.44
2024-01-16T20:12:42.957Z,48702.94
2024-01-16T20:15:17.340Z,48687.28
2024-01-16T20:17:45.576Z,48714.69
2024-01-16T20:20:15.108Z,48722.53
2024-01-16T20:22:43.178Z,48695.09
2024-01-16T20:25:14.141Z,48671.59
2024-01-16T20:27:41.794Z,48687.28
2024-01-16T20:30:10.094Z,48687.28
2024-01-16T20:32:40.260Z,48683.34
2024-01-16T20:35:08.370Z,48718.59
2024-01-16T20:37:36.869Z,48702.94
2024-01-16T20:40:05.905Z,48708.81
2024-01-16T20:42:33.059Z,48710.78
2024-01-16T20:44:59.601Z,48699.03
2024-01-16T20:47:26.576Z,48687.28
2024-01-16T20:49:53.586Z,48714.69
2024-01-16T20:52:20.973Z,48691.19
2024-01-16T20:54:47.472Z,48697.06
2024-01-16T20:57:14.738Z,48700.97
2024-01-16T20:59:41.341Z,48710.78
2024-01-16T21:02:08.409Z,48706.84
2024-01-16T21:04:38.083Z,48704.91
2024-01-16T21:07:05.725Z,48710.78
2024-01-16T21:09:33.267Z,48687.28
2024-01-16T21:12:01.911Z,48699.03
2024-01-16T21:14:30.228Z,48691.19
2024-01-16T21:16:56.731Z,48714.69
2024-01-16T21:19:23.268Z,48699.03
2024-01-16T21:21:55.564Z,48716.66
2024-01-16T21:24:22.205Z,48714.69
2024-01-16T21:26:49.302Z,48722.53
2024-01-16T21:29:16.280Z,48716.66
2024-01-16T21:31:47.712Z,48714.69
2024-01-16T21:34:16.199Z,48691.19
2024-01-16T21:36:42.717Z,48722.53
2024-01-16T21:39:10.256Z,48706.84
2024-01-16T21:41:36.844Z,48720.56
2024-01-16T21:44:03.379Z,48718.59
2024-01-16T21:46:29.865Z,48695.09
2024-01-16T21:48:56.534Z,48691.19
2024-01-16T21:51:24.372Z,48712.72
2024-01-16T21:53:50.924Z,48710.78
2024-01-16T21:56:17.405Z,48714.69
2024-01-16T21:58:43.892Z,48702.94
2024-01-16T22:01:11.638Z,48695.09
2024-01-16T22:03:40.756Z,48702.94
2024-01-16T22:06:07.463Z,48702.94
2024-01-16T22:08:34.082Z,48679.44
2024-01-16T22:11:00.877Z,48706.84
2024-01-16T22:13:27.725Z,48714.69
2024-01-16T22:15:54.951Z,48712.72
2024-01-16T22:18:23.249Z,48699.03
2024-01-16T22:20:49.918Z,48699.03
2024-01-16T22:23:16.643Z,48697.06
2024-01-16T22:25:43.435Z,48714.69
2024-01-16T22:28:10.285Z,48702.94
2024-01-16T22:30:40.732Z,48714.69
2024-01-16T22:33:07.522Z,48687.28
2024-01-16T22:35:34.151Z,48714.69
2024-01-16T22:38:00.879Z,48712.72
2024-01-16T22:40:27.615Z,48687.28
2024-01-16T22:42:54.200Z,48714.69
2024-01-16T22:45:23.584Z,48722.53
2024-01-16T22:47:52.330Z,48699.03
2024-01-16T22:50:21.282Z,48710.78
2024-01-16T22:52:48.645Z,48699.03
2024-01-16T22:55:16.900Z,48740.16
2024-01-16T22:57:44.752Z,48704.91
2024-01-16T23:00:18.826Z,48722.53
2024-01-16T23:02:46.053Z,48724.50
2024-01-16T23:05:18.654Z,48716.66
2024-01-16T23:07:46.125Z,48695.09
2024-01-16T23:10:17.110Z,48702.94
2024-01-16T23:12:46.577Z,48683.34
2024-01-16T23:15:13.523Z,48691.19
2024-01-16T23:17:40.081Z,48693.16
2024-01-16T23:20:09.647Z,48716.66
2024-01-16T23:22:36.363Z,48687.28
2024-01-16T23:25:05.430Z,48691.19
2024-01-16T23:27:32.399Z,48691.19
2024-01-16T23:29:59.600Z,48691.19
2024-01-16T23:32:26.334Z,48726.44
2024-01-16T23:34:52.938Z,48699.03
2024-01-16T23:37:25.043Z,48706.84
2024-01-16T23:39:55.866Z,48683.34
2024-01-16T23:42:24.169Z,48710.78
2024-01-16T23:44:51.723Z,48702.94
2024-01-16T23:47:19.020Z,48706.84
2024-01-16T23:49:48.792Z,48714.69
2024-01-16T23:52:15.282Z,48697.06
2024-01-16T23:54:42.042Z,48718.59
2024-01-16T23:57:08.894Z,48699.03
2024-01-16T23:59:39.363Z,48726.44
